Terminal Aerodrome Forecast
Issued by NWS

Current Version | Previous Version | Text Only | Print | Product List | Glossary On
Versions: 1 2 3 4 5 6 7 8 9 10 11 12 13 14 15 16 17 18 19 20 21 22 23 24 25 26 27 28 29 30 31
005
FTUS42 KFFC 281733
TAFFTY
TAF
KFTY 281733Z 2818/2918 28007KT P6SM BKN025
     FM281900 27009KT P6SM VCSH BKN035
     FM290000 VRB03KT P6SM SCT035
     FM290200 VRB03KT P6SM SCT120
     FM291000 VRB03KT 3SM BR SCT120
     FM291500 12005KT P6SM SCT040 BKN120=

USA.gov is the U.S. government's official web portal to all federal, state and local government web resources and services.